createdAt,value
2022-10-11T00:01:23.362Z,1.55
2022-10-11T00:03:51.717Z,1.50
2022-10-11T00:06:19.594Z,1.60
2022-10-11T00:08:48.954Z,1.50
2022-10-11T00:11:16.860Z,1.63
2022-10-11T00:13:44.784Z,1.50
2022-10-11T00:16:13.114Z,1.75
2022-10-11T00:18:41.071Z,1.30
2022-10-11T00:21:09.907Z,1.70
2022-10-11T00:23:37.919Z,1.63
2022-10-11T00:26:08.984Z,1.50
2022-10-11T00:28:37.423Z,1.50
2022-10-11T00:31:08.165Z,1.60
2022-10-11T00:33:36.736Z,1.70
2022-10-11T00:36:04.875Z,1.70
2022-10-11T00:38:33.008Z,1.60
2022-10-11T00:41:01.079Z,1.55
2022-10-11T00:43:31.178Z,1.63
2022-10-11T00:46:26.680Z,1.60
2022-10-11T00:48:57.232Z,1.58
2022-10-11T00:51:27.473Z,1.70
2022-10-11T00:53:55.386Z,1.52
2022-10-11T00:56:24.896Z,1.80
2022-10-11T00:58:54.219Z,1.60
2022-10-11T01:01:22.263Z,1.80
2022-10-11T01:03:50.203Z,1.67
2022-10-11T01:06:18.070Z,1.63
2022-10-11T01:08:45.978Z,1.65
2022-10-11T01:11:14.808Z,1.52
2022-10-11T01:13:49.124Z,1.17
2022-10-11T01:16:20.399Z,1.45
2022-10-11T01:18:50.512Z,1.60
2022-10-11T01:21:25.281Z,1.50
2022-10-11T01:24:29.239Z,1.40
2022-10-11T01:27:31.886Z,1.35
2022-10-11T01:30:27.847Z,1.48
2022-10-11T01:33:02.829Z,1.30
2022-10-11T01:35:32.087Z,1.33
2022-10-11T01:38:02.823Z,1.42
2022-10-11T01:40:32.757Z,1.30
2022-10-11T01:43:00.650Z,1.60
2022-10-11T01:45:30.021Z,1.40
2022-10-11T01:48:05.540Z,1.33
2022-10-11T01:50:44.945Z,1.52
2022-10-11T01:53:34.937Z,1.20
2022-10-11T01:56:07.582Z,1.30
2022-10-11T01:58:40.264Z,1.25
2022-10-11T02:01:12.037Z,1.48
2022-10-11T02:03:44.768Z,1.10
2022-10-11T02:06:13.907Z,1.30
2022-10-11T02:08:45.845Z,1.50
2022-10-11T02:11:16.541Z,1.40
2022-10-11T02:13:46.316Z,1.20
2022-10-11T02:16:17.670Z,1.30
2022-10-11T02:18:47.164Z,1.50
2022-10-11T02:21:18.356Z,1.50
2022-10-11T02:23:48.959Z,1.38
2022-10-11T02:26:16.963Z,1.30
2022-10-11T02:28:44.959Z,1.50
2022-10-11T02:31:12.902Z,1.30
2022-10-11T02:33:44.530Z,1.30
2022-10-11T02:36:14.310Z,1.38
2022-10-11T02:38:45.140Z,1.33
2022-10-11T02:41:24.505Z,1.40
2022-10-11T02:43:55.210Z,1.60
2022-10-11T02:46:23.178Z,1.40
2022-10-11T02:48:52.588Z,1.35
2022-10-11T02:51:20.578Z,1.40
2022-10-11T02:53:48.573Z,1.40
2022-10-11T02:56:16.545Z,1.20
2022-10-11T02:58:44.533Z,1.30
2022-10-11T03:01:12.487Z,1.20
2022-10-11T03:03:40.406Z,1.20
2022-10-11T03:06:10.020Z,1.40
2022-10-11T03:08:38.059Z,1.23
2022-10-11T03:11:05.972Z,1.20
2022-10-11T03:13:33.909Z,1.40
2022-10-11T03:16:03.518Z,1.10
2022-10-11T03:18:31.753Z,1.20
2022-10-11T03:20:59.641Z,1.10
2022-10-11T03:23:28.951Z,1.33
2022-10-11T03:25:56.911Z,1.20
2022-10-11T03:28:24.907Z,1.08
2022-10-11T03:30:53.223Z,1.20
2022-10-11T03:33:21.103Z,1.20
2022-10-11T03:35:49.495Z,1.50
2022-10-11T03:38:18.709Z,1.30
2022-10-11T03:40:48.089Z,1.30
2022-10-11T03:43:16.012Z,1.25
2022-10-11T03:45:44.068Z,1.15
2022-10-11T03:48:12.171Z,1.35
2022-10-11T03:50:40.284Z,1.05
2022-10-11T03:53:08.657Z,1.20
2022-10-11T03:55:36.819Z,1.10
2022-10-11T03:58:06.161Z,1.27
2022-10-11T04:00:34.115Z,1.30
2022-10-11T04:03:03.696Z,1.20
2022-10-11T04:05:31.592Z,1.20
2022-10-11T04:07:59.511Z,1.10
2022-10-11T04:10:27.424Z,1.13
2022-10-11T04:12:55.308Z,1.30
2022-10-11T04:15:24.694Z,1.10
2022-10-11T04:17:52.556Z,1.20
2022-10-11T04:20:20.489Z,1.08
2022-10-11T04:22:48.520Z,1.10
2022-10-11T04:25:16.713Z,1.10
2022-10-11T04:27:44.642Z,1.30
2022-10-11T04:30:14.046Z,1.15
2022-10-11T04:32:43.777Z,1.20
2022-10-11T04:35:11.963Z,1.15
2022-10-11T04:37:39.930Z,1.17
2022-10-11T04:40:09.197Z,1.10
2022-10-11T04:42:37.293Z,1.40
2022-10-11T04:45:05.833Z,1.30
2022-10-11T04:47:34.002Z,1.10
2022-10-11T04:50:16.040Z,0.80
2022-10-11T04:52:44.093Z,1.10
2022-10-11T04:55:12.322Z,1.00
2022-10-11T04:57:40.312Z,1.17
2022-10-11T05:00:09.374Z,1.25
2022-10-11T05:02:37.301Z,1.10
2022-10-11T05:05:44.133Z,1.02
2022-10-11T05:08:13.868Z,1.35
2022-10-11T05:10:42.203Z,1.08
2022-10-11T05:13:10.300Z,1.10
2022-10-11T05:15:38.211Z,1.10
2022-10-11T05:18:06.194Z,1.27
2022-10-11T05:20:34.173Z,1.20
2022-10-11T05:23:02.060Z,1.02
2022-10-11T05:25:31.545Z,1.23
2022-10-11T05:27:59.529Z,1.20
2022-10-11T05:30:27.459Z,1.13
2022-10-11T05:32:55.395Z,0.95
2022-10-11T05:35:23.336Z,1.15
2022-10-11T05:37:51.346Z,1.00
2022-10-11T05:40:19.456Z,1.02
2022-10-11T05:42:48.794Z,1.00
2022-10-11T05:45:16.847Z,1.23
2022-10-11T05:47:44.851Z,1.08
2022-10-11T05:50:12.838Z,1.10
2022-10-11T05:52:40.790Z,1.20
2022-10-11T05:55:09.687Z,1.08
2022-10-11T05:57:39.003Z,1.10
2022-10-11T06:00:10.430Z,0.90
2022-10-11T06:02:38.486Z,0.90
2022-10-11T06:05:06.984Z,1.00
2022-10-11T06:07:36.962Z,1.23
2022-10-11T06:10:05.180Z,1.10
2022-10-11T06:12:33.306Z,1.08
2022-10-11T06:15:01.215Z,1.00
2022-10-11T06:17:30.521Z,1.13
2022-10-11T06:20:21.265Z,1.23
2022-10-11T06:22:49.279Z,1.10
2022-10-11T06:25:17.478Z,1.20
2022-10-11T06:27:45.955Z,1.02
2022-10-11T06:30:14.261Z,1.30
2022-10-11T06:32:43.948Z,1.30
2022-10-11T06:35:20.011Z,1.20
2022-10-11T06:37:54.705Z,1.00
2022-10-11T06:40:22.654Z,1.08
2022-10-11T06:42:50.724Z,1.00
2022-10-11T06:45:18.848Z,1.15
2022-10-11T06:47:48.422Z,1.30
2022-10-11T06:50:16.546Z,1.10
2022-10-11T06:52:44.634Z,1.00
2022-10-11T06:55:12.678Z,1.17
2022-10-11T06:57:41.865Z,1.20
2022-10-11T07:00:12.730Z,1.10
2022-10-11T07:02:40.860Z,0.88
2022-10-11T07:05:11.074Z,1.27
2022-10-11T07:07:38.946Z,1.10
2022-10-11T07:10:08.263Z,1.13
2022-10-11T07:12:36.134Z,1.00
2022-10-11T07:15:04.197Z,1.10
2022-10-11T07:17:32.158Z,1.10
2022-10-11T07:20:00.127Z,1.15
2022-10-11T07:22:29.599Z,1.00
2022-10-11T07:24:57.573Z,1.02
2022-10-11T07:27:25.500Z,1.00
2022-10-11T07:29:53.521Z,0.95
2022-10-11T07:32:21.859Z,1.10
2022-10-11T07:34:50.024Z,1.20
2022-10-11T07:37:18.031Z,1.10
2022-10-11T07:39:47.321Z,1.08
2022-10-11T07:42:15.350Z,1.20
2022-10-11T07:44:43.296Z,1.20
2022-10-11T07:47:11.629Z,1.33
2022-10-11T07:49:39.691Z,1.15
2022-10-11T07:52:07.676Z,1.15
2022-10-11T07:54:35.685Z,1.27
2022-10-11T07:57:05.118Z,1.10
2022-10-11T07:59:33.130Z,1.10
2022-10-11T08:02:01.162Z,1.00
2022-10-11T08:04:29.337Z,1.25
2022-10-11T08:06:57.282Z,1.13
2022-10-11T08:09:25.469Z,1.23
2022-10-11T08:11:53.359Z,1.20
2022-10-11T08:14:22.946Z,1.27
2022-10-11T08:16:50.878Z,1.27
2022-10-11T08:19:19.439Z,1.30
2022-10-11T08:21:47.436Z,1.25
2022-10-11T08:24:15.484Z,1.30
2022-10-11T08:26:43.601Z,1.20
2022-10-11T08:29:11.747Z,1.10
2022-10-11T08:31:41.142Z,1.33
2022-10-11T08:34:09.156Z,1.25
2022-10-11T08:36:37.574Z,1.30
2022-10-11T08:39:05.730Z,1.33
2022-10-11T08:41:39.660Z,1.27
2022-10-11T08:44:15.737Z,1.17
2022-10-11T08:46:46.772Z,1.08
2022-10-11T08:49:14.981Z,1.25
2022-10-11T08:51:44.489Z,1.40
2022-10-11T08:54:15.321Z,1.20
2022-10-11T08:56:43.669Z,1.30
2022-10-11T08:59:19.608Z,1.25
2022-10-11T09:01:53.476Z,1.30
2022-10-11T09:04:21.867Z,1.10
2022-10-11T09:07:17.781Z,1.20
2022-10-11T09:09:56.783Z,1.17
2022-10-11T09:12:32.404Z,1.20
2022-10-11T09:15:14.884Z,1.30
2022-10-11T09:18:01.893Z,1.27
2022-10-11T09:20:39.889Z,1.30
2022-10-11T09:23:13.006Z,1.25
2022-10-11T09:25:44.432Z,1.23
2022-10-11T09:28:17.680Z,1.65
2022-10-11T09:30:48.671Z,1.27
2022-10-11T09:33:20.719Z,1.20
2022-10-11T09:35:49.505Z,1.00
2022-10-11T09:38:27.597Z,1.33
2022-10-11T09:41:03.193Z,1.40
2022-10-11T09:43:31.248Z,1.10
2022-10-11T09:45:59.334Z,1.20
2022-10-11T09:48:31.859Z,1.63
2022-10-11T09:51:05.954Z,1.63
2022-10-11T09:53:50.539Z,1.65
2022-10-11T09:56:18.571Z,1.30
2022-10-11T09:58:46.495Z,1.63
2022-10-11T10:01:23.184Z,1.40
2022-10-11T10:04:05.926Z,1.50
2022-10-11T10:06:33.910Z,1.60
2022-10-11T10:09:37.313Z,1.55
2022-10-11T10:12:12.543Z,1.60
2022-10-11T10:14:40.531Z,1.52
2022-10-11T10:17:15.127Z,1.50
2022-10-11T10:22:18.154Z,1.60
2022-10-11T10:24:47.465Z,1.55
2022-10-11T10:27:22.265Z,1.70
2022-10-11T10:30:18.243Z,1.45
2022-10-11T10:32:50.323Z,1.60
2022-10-11T10:35:28.819Z,1.63
2022-10-11T10:38:01.709Z,1.52
2022-10-11T10:40:31.272Z,1.38
2022-10-11T10:42:59.387Z,1.50
2022-10-11T10:45:29.771Z,1.60
2022-10-11T10:48:14.311Z,1.60
2022-10-11T10:50:49.817Z,1.75
2022-10-11T10:53:22.603Z,1.50
2022-10-11T10:55:53.083Z,1.60
2022-10-11T10:58:31.046Z,1.60
2022-10-11T11:01:01.060Z,1.70
2022-10-11T11:03:30.999Z,1.77
2022-10-11T11:06:02.468Z,1.67
2022-10-11T11:08:43.389Z,1.85
2022-10-11T11:11:18.036Z,1.73
2022-10-11T11:16:17.387Z,2.00
2022-10-11T11:18:48.337Z,1.83
2022-10-11T11:21:24.596Z,2.05
2022-10-11T11:23:57.494Z,1.90
2022-10-11T11:26:28.736Z,2.30
2022-10-11T11:29:12.526Z,1.98
2022-10-11T11:31:47.889Z,2.22
2022-10-11T11:34:19.074Z,2.20
2022-10-11T11:36:49.105Z,2.05
2022-10-11T11:39:18.535Z,2.28
2022-10-11T11:41:49.121Z,2.15
2022-10-11T11:44:21.721Z,2.45
2022-10-11T11:46:53.525Z,2.30
2022-10-11T11:49:24.156Z,2.28
2022-10-11T11:51:53.553Z,2.55
2022-10-11T11:54:28.684Z,2.45
2022-10-11T11:57:00.424Z,2.60
2022-10-11T11:59:31.881Z,2.85
2022-10-11T12:02:04.208Z,2.50
2022-10-11T12:04:33.299Z,2.40
2022-10-11T12:07:15.841Z,2.30
2022-10-11T12:09:45.580Z,2.50
2022-10-11T12:12:28.399Z,2.40
2022-10-11T12:15:04.458Z,2.40
2022-10-11T12:17:32.407Z,2.90
2022-10-11T12:20:23.356Z,2.60
2022-10-11T12:23:23.520Z,2.97
2022-10-11T12:26:24.725Z,2.75
2022-10-11T12:29:29.294Z,2.72
2022-10-11T12:32:52.343Z,2.92
2022-10-11T12:36:01.507Z,2.97
2022-10-11T12:38:33.826Z,2.60
2022-10-11T12:41:27.653Z,2.92
2022-10-11T12:44:08.919Z,2.83
2022-10-11T12:46:45.667Z,2.88
2022-10-11T12:49:24.500Z,3.30
2022-10-11T12:51:56.847Z,2.95
2022-10-11T12:54:51.973Z,3.10
2022-10-11T12:57:46.318Z,3.42
2022-10-11T13:00:21.898Z,2.80
2022-10-11T13:02:49.828Z,3.30
2022-10-11T13:05:22.887Z,3.50
2022-10-11T13:07:51.347Z,3.75
2022-10-11T13:10:22.476Z,3.38
2022-10-11T13:12:50.358Z,3.90
2022-10-11T13:15:20.063Z,3.50
2022-10-11T13:17:50.340Z,3.97
2022-10-11T13:20:22.628Z,3.58
2022-10-11T13:22:51.507Z,4.15
2022-10-11T13:25:22.177Z,3.78
2022-10-11T13:27:50.543Z,4.20
2022-10-11T13:30:20.300Z,3.80
2022-10-11T13:32:48.231Z,3.53
2022-10-11T13:35:24.012Z,3.63
2022-10-11T13:37:52.886Z,3.50
2022-10-11T13:40:22.755Z,3.80
2022-10-11T13:42:50.874Z,3.85
2022-10-11T13:45:20.309Z,3.70
2022-10-11T13:47:49.123Z,3.60
2022-10-11T13:50:25.053Z,3.72
2022-10-11T13:52:56.426Z,4.03
2022-10-11T13:55:33.586Z,4.50
2022-10-11T13:58:02.904Z,4.40
2022-10-11T14:00:32.926Z,4.65
2022-10-11T14:03:03.047Z,4.28
2022-10-11T14:05:35.288Z,3.90
2022-10-11T14:08:04.759Z,4.78
2022-10-11T14:10:32.796Z,5.10
2022-10-11T14:13:06.869Z,4.10
2022-10-11T14:15:35.686Z,4.30
2022-10-11T14:18:06.219Z,4.43
2022-10-11T14:20:39.400Z,4.40
2022-10-11T14:23:08.181Z,4.20
2022-10-11T14:25:36.132Z,4.40
2022-10-11T14:28:06.797Z,4.40
2022-10-11T14:30:34.744Z,4.50
2022-10-11T14:33:03.347Z,4.28
2022-10-11T14:35:32.364Z,4.20
2022-10-11T14:38:02.508Z,4.22
2022-10-11T14:40:31.144Z,4.10
2022-10-11T14:42:59.813Z,3.75
2022-10-11T14:45:27.793Z,3.90
2022-10-11T14:47:57.157Z,3.85
2022-10-11T14:50:32.102Z,3.92
2022-10-11T14:53:02.110Z,3.92
2022-10-11T14:55:30.427Z,3.83
2022-10-11T14:57:59.815Z,4.13
2022-10-11T15:00:28.759Z,4.22
2022-10-11T15:02:57.585Z,4.03
2022-10-11T15:05:31.191Z,3.58
2022-10-11T15:08:03.782Z,4.30
2022-10-11T15:10:34.886Z,4.00
2022-10-11T15:13:03.693Z,3.90
2022-10-11T15:15:35.337Z,3.75
2022-10-11T15:18:04.577Z,4.03
2022-10-11T15:20:33.668Z,3.75
2022-10-11T15:23:05.033Z,4.05
2022-10-11T15:25:33.054Z,4.15
2022-10-11T15:28:01.790Z,4.20
2022-10-11T15:30:31.036Z,4.05
2022-10-11T15:32:59.827Z,4.28
2022-10-11T15:35:27.924Z,4.30
2022-10-11T15:37:57.481Z,4.30
2022-10-11T15:40:28.047Z,4.20
2022-10-11T15:42:56.747Z,4.32
2022-10-11T15:45:24.864Z,4.20
2022-10-11T15:47:53.539Z,3.90
2022-10-11T15:50:34.099Z,3.90
2022-10-11T15:53:04.312Z,4.40
2022-10-11T15:55:34.658Z,4.10
2022-10-11T15:58:03.960Z,4.50
2022-10-11T16:00:31.898Z,4.13
2022-10-11T16:03:00.837Z,4.47
2022-10-11T16:05:29.150Z,4.63
2022-10-11T16:07:57.882Z,4.25
2022-10-11T16:10:25.840Z,4.72
2022-10-11T16:12:56.734Z,4.40
2022-10-11T16:15:24.723Z,4.53
2022-10-11T16:17:53.385Z,4.80
2022-10-11T16:20:22.492Z,4.53
2022-10-11T16:22:52.908Z,4.70
2022-10-11T16:25:20.984Z,4.60
2022-10-11T16:27:49.810Z,4.65
2022-10-11T16:30:20.049Z,4.90
2022-10-11T16:32:48.924Z,4.60
2022-10-11T16:35:17.215Z,4.70
2022-10-11T16:37:45.995Z,5.18
2022-10-11T16:40:15.888Z,5.03
2022-10-11T16:42:43.875Z,4.97
2022-10-11T16:45:12.796Z,4.82
2022-10-11T16:47:42.201Z,4.97
2022-10-11T16:50:10.994Z,5.50
2022-10-11T16:52:41.948Z,5.30
2022-10-11T16:55:11.204Z,5.60
2022-10-11T16:57:39.237Z,5.20
2022-10-11T17:00:09.818Z,5.15
2022-10-11T17:02:37.815Z,4.97
2022-10-11T17:05:08.296Z,5.50
2022-10-11T17:07:36.266Z,5.22
2022-10-11T17:10:06.031Z,5.50
2022-10-11T17:12:37.173Z,5.18
2022-10-11T17:15:07.127Z,6.05
2022-10-11T17:17:35.148Z,5.32
2022-10-11T17:20:04.412Z,5.63
2022-10-11T17:22:33.691Z,6.20
2022-10-11T17:25:05.016Z,5.80
2022-10-11T17:27:33.039Z,5.90
2022-10-11T17:30:01.818Z,5.80
2022-10-11T17:32:29.888Z,5.80
2022-10-11T17:34:59.936Z,5.35
2022-10-11T17:37:27.949Z,5.90
2022-10-11T17:39:58.071Z,5.75
2022-10-11T17:42:26.264Z,5.75
2022-10-11T17:44:55.028Z,5.93
2022-10-11T17:47:23.302Z,6.50
2022-10-11T17:49:52.502Z,6.35
2022-10-11T17:52:20.517Z,6.25
2022-10-11T17:54:50.039Z,6.47
2022-10-11T17:57:19.545Z,6.70
2022-10-11T17:59:48.255Z,6.30
2022-10-11T18:02:16.231Z,6.18
2022-10-11T18:04:44.947Z,6.60
2022-10-11T18:07:12.842Z,6.07
2022-10-11T18:09:43.028Z,6.70
2022-10-11T18:12:11.065Z,6.25
2022-10-11T18:14:41.205Z,6.55
2022-10-11T18:17:09.138Z,6.78
2022-10-11T18:19:38.009Z,7.05
2022-10-11T18:22:07.190Z,6.70
2022-10-11T18:24:37.399Z,6.60
2022-10-11T18:27:05.445Z,7.40
2022-10-11T18:29:36.002Z,6.97
2022-10-11T18:32:05.471Z,7.20
2022-10-11T18:34:34.245Z,6.63
2022-10-11T18:37:02.292Z,7.22
2022-10-11T18:39:31.043Z,7.03
2022-10-11T18:41:59.674Z,7.10
2022-10-11T18:44:28.824Z,7.47
2022-10-11T18:46:56.751Z,7.00
2022-10-11T18:49:27.195Z,6.40
2022-10-11T18:51:55.144Z,7.45
2022-10-11T18:54:24.550Z,7.45
2022-10-11T18:56:55.078Z,7.22
2022-10-11T18:59:23.067Z,7.50
2022-10-11T19:01:54.350Z,6.97
2022-10-11T19:04:22.873Z,7.10
2022-10-11T19:06:54.335Z,7.22
2022-10-11T19:09:23.024Z,7.40
2022-10-11T19:11:52.579Z,7.60
2022-10-11T19:14:21.391Z,7.00
2022-10-11T19:16:53.061Z,7.07
2022-10-11T19:19:21.859Z,7.95
2022-10-11T19:21:51.133Z,7.78
2022-10-11T19:24:22.020Z,7.32
2022-10-11T19:26:50.814Z,7.80
2022-10-11T19:29:19.944Z,7.50
2022-10-11T19:31:49.874Z,8.32
2022-10-11T19:34:17.888Z,7.72
2022-10-11T19:36:46.972Z,7.90
2022-10-11T19:39:16.020Z,7.82
2022-10-11T19:41:48.155Z,7.93
2022-10-11T19:44:16.158Z,8.27
2022-10-11T19:46:51.506Z,7.65
2022-10-11T19:49:22.545Z,7.65
2022-10-11T19:51:51.744Z,7.68
2022-10-11T19:54:20.911Z,7.32
2022-10-11T19:56:51.243Z,7.70
2022-10-11T19:59:19.723Z,7.65
2022-10-11T20:01:52.703Z,7.43
2022-10-11T20:07:11.032Z,8.23
2022-10-11T20:09:39.104Z,7.78
2022-10-11T20:12:10.187Z,7.68
2022-10-11T20:14:38.139Z,8.20
2022-10-11T20:17:07.363Z,8.23
2022-10-11T20:19:35.744Z,8.25
2022-10-11T20:22:05.219Z,8.50
2022-10-11T20:24:34.613Z,8.25
2022-10-11T20:27:08.401Z,8.15
2022-10-11T20:29:37.763Z,8.35
2022-10-11T20:32:08.273Z,7.85
2022-10-11T20:34:39.421Z,7.70
2022-10-11T20:37:08.131Z,8.13
2022-10-11T20:39:36.155Z,7.85
2022-10-11T20:42:05.007Z,7.53
2022-10-11T20:44:32.983Z,7.90
2022-10-11T20:47:04.187Z,7.90
2022-10-11T20:49:32.393Z,7.80
2022-10-11T20:52:01.262Z,7.70
2022-10-11T20:54:30.649Z,7.97
2022-10-11T20:57:00.070Z,8.95
2022-10-11T20:59:28.776Z,7.35
2022-10-11T21:01:57.674Z,8.00
2022-10-11T21:04:27.234Z,7.88
2022-10-11T21:06:55.957Z,7.15
2022-10-11T21:09:24.139Z,7.80
2022-10-11T21:11:56.299Z,7.35
2022-10-11T21:14:24.502Z,7.50
2022-10-11T21:16:55.271Z,7.25
2022-10-11T21:19:23.255Z,7.47
2022-10-11T21:21:53.941Z,7.20
2022-10-11T21:24:22.604Z,7.22
2022-10-11T21:26:51.309Z,7.32
2022-10-11T21:29:19.420Z,7.53
2022-10-11T21:31:48.101Z,7.03
2022-10-11T21:34:16.171Z,7.38
2022-10-11T21:36:45.165Z,7.28
2022-10-11T21:39:14.567Z,7.35
2022-10-11T21:41:43.103Z,7.38
2022-10-11T21:44:12.011Z,7.60
2022-10-11T21:47:06.668Z,7.53
2022-10-11T21:49:29.154Z,6.60
2022-10-11T21:51:57.189Z,7.50
2022-10-11T21:54:27.417Z,6.65
2022-10-11T21:56:55.398Z,7.22
2022-10-11T21:59:24.044Z,7.30
2022-10-11T22:01:52.048Z,7.22
2022-10-11T22:04:20.746Z,6.90
2022-10-11T22:06:48.741Z,6.90
2022-10-11T22:09:17.204Z,6.78
2022-10-11T22:11:46.515Z,7.35
2022-10-11T22:14:14.690Z,7.00
2022-10-11T22:16:42.685Z,6.68
2022-10-11T22:19:10.756Z,6.82
2022-10-11T22:21:44.018Z,6.45
2022-10-11T22:24:12.984Z,6.28
2022-10-11T22:26:40.911Z,6.50
2022-10-11T22:29:10.295Z,6.82
2022-10-11T22:31:38.202Z,6.47
2022-10-11T22:34:06.161Z,6.47
2022-10-11T22:36:34.722Z,6.43
2022-10-11T22:39:07.706Z,6.78
2022-10-11T22:41:36.089Z,7.28
2022-10-11T22:44:04.170Z,6.15
2022-10-11T22:46:33.527Z,6.45
2022-10-11T22:49:01.469Z,6.57
2022-10-11T22:51:29.454Z,6.47
2022-10-11T22:53:57.368Z,6.68
2022-10-11T22:56:25.373Z,6.00
2022-10-11T22:58:53.327Z,6.50
2022-10-11T23:01:21.282Z,6.35
2022-10-11T23:03:51.140Z,6.15
2022-10-11T23:06:19.102Z,6.50
2022-10-11T23:08:47.008Z,6.07
2022-10-11T23:11:14.975Z,5.60
2022-10-11T23:13:42.936Z,6.18
2022-10-11T23:16:11.596Z,6.32
2022-10-11T23:18:39.516Z,5.80
2022-10-11T23:21:09.024Z,5.90
2022-10-11T23:23:37.122Z,5.95
2022-10-11T23:26:06.124Z,5.90
2022-10-11T23:28:34.240Z,5.72
2022-10-11T23:31:02.144Z,6.05
2022-10-11T23:33:30.853Z,5.82
2022-10-11T23:35:58.820Z,6.13
2022-10-11T23:38:28.132Z,5.63
2022-10-11T23:40:56.085Z,6.72
2022-10-11T23:43:24.220Z,6.03
2022-10-11T23:45:54.079Z,5.68
2022-10-11T23:48:22.117Z,6.50
2022-10-11T23:50:50.212Z,6.25
2022-10-11T23:53:18.286Z,5.95
2022-10-11T23:55:47.597Z,5.63
2022-10-11T23:58:15.590Z,5.97
